Time;durP1;ratioP1;P1;durP2;ratioP2;P2;SDS_P1;SDS_P2;PMS_P1;PMS_P2;Temp;Humidity;BMP_temperature;BMP_pressure;BME280_temperature;BME280_humidity;BME280_pressure;Samples;Min_cycle;Max_cycle;Signal;HPM_P1;HPM_P2
2020/12/29 00:02:24;;;;;;;18.10;14.60;;;;;;;3.39;64.14;98018.63;4946924;28;98387;-64
2020/12/29 00:04:50;;;;;;;22.15;18.58;;;;;;;3.40;63.83;98030.59;4970157;28;98539;-64
2020/12/29 00:07:16;;;;;;;19.05;16.92;;;;;;;3.39;64.43;98051.28;4971197;28;97654;-64
2020/12/29 00:09:43;;;;;;;19.77;16.90;;;;;;;3.37;64.68;98060.84;4942323;28;96777;-64
2020/12/29 00:12:09;;;;;;;18.67;15.80;;;;;;;3.24;65.18;98093.31;4970584;28;98649;-64
2020/12/29 00:14:36;;;;;;;19.65;15.57;;;;;;;3.48;64.25;98067.97;4970738;28;98668;-63
2020/12/29 00:17:02;;;;;;;19.02;15.85;;;;;;;3.54;64.47;98047.84;4971009;28;96553;-64
2020/12/29 00:19:28;;;;;;;26.65;18.40;;;;;;;3.40;64.75;98081.28;4963907;28;97106;-64
2020/12/29 00:21:55;;;;;;;20.08;15.63;;;;;;;3.47;64.17;98081.78;4963543;28;98546;-63
2020/12/29 00:24:21;;;;;;;21.45;17.08;;;;;;;3.49;64.14;98095.41;4964613;28;98700;-63
2020/12/29 00:27:03;;;;;;;16.58;14.45;;;;;;;3.35;64.85;98071.22;4964465;28;97874;-63
2020/12/29 00:29:30;;;;;;;18.15;14.52;;;;;;;3.55;64.34;98098.44;4967051;28;96738;-63
2020/12/29 00:32:02;;;;;;;18.02;15.27;;;;;;;3.34;64.70;98136.53;4966293;28;98587;-64
2020/12/29 00:34:28;;;;;;;16.60;13.02;;;;;;;3.51;64.48;98127.88;4967498;28;98526;-63
2020/12/29 00:36:55;;;;;;;15.95;13.98;;;;;;;3.45;64.43;98130.78;4967311;28;98286;-63
2020/12/29 00:39:21;;;;;;;17.98;13.90;;;;;;;3.36;65.21;98114.09;4950772;28;96923;-63
2020/12/29 00:41:47;;;;;;;16.42;13.77;;;;;;;3.48;65.12;98109.19;4956812;28;97929;-63
2020/12/29 00:44:14;;;;;;;15.43;13.43;;;;;;;3.58;64.99;98120.66;4967697;28;98591;-64
2020/12/29 00:46:40;;;;;;;15.52;12.85;;;;;;;3.49;64.90;98119.41;4968302;28;98066;-63
2020/12/29 00:49:07;;;;;;;17.73;13.23;;;;;;;3.74;63.38;98110.31;4968508;28;99390;-63
2020/12/29 00:51:33;;;;;;;16.27;13.43;;;;;;;3.85;62.60;98098.50;4950285;28;100074;-63
2020/12/29 00:54:02;;;;;;;13.82;11.77;;;;;;;3.56;63.55;98092.38;4965241;28;100455;-63
2020/12/29 00:56:35;;;;;;;17.75;13.30;;;;;;;3.76;63.63;98093.84;4950220;28;100510;-63
2020/12/29 00:59:03;;;;;;;16.17;14.50;;;;;;;3.76;62.57;98065.50;4950391;28;96851;-63
2020/12/29 01:01:32;;;;;;;14.60;12.00;;;;;;;3.60;63.25;98070.69;4966662;28;98605;-63
2020/12/29 01:04:22;;;;;;;15.95;14.23;;;;;;;3.48;63.58;98055.94;4955872;28;97958;-63
2020/12/29 01:06:49;;;;;;;13.48;11.95;;;;;;;3.19;64.58;98051.56;4933866;28;97528;-63
2020/12/29 01:09:21;;;;;;;14.82;13.18;;;;;;;3.33;63.91;98038.75;4949059;28;97198;-62
2020/12/29 01:11:49;;;;;;;13.38;11.02;;;;;;;3.49;62.58;98026.69;4966146;28;100007;-63
2020/12/29 01:14:16;;;;;;;14.50;10.80;;;;;;;3.58;62.28;98038.22;4966884;28;98753;-63
2020/12/29 01:16:56;;;;;;;12.90;11.60;;;;;;;3.57;62.06;98037.38;4965592;28;97554;-63
2020/12/29 01:19:22;;;;;;;12.35;11.10;;;;;;;3.37;62.27;98040.25;4966867;28;97401;-63
2020/12/29 01:21:52;;;;;;;11.35;10.13;;;;;;;3.23;62.81;98040.19;4949032;28;98609;-64
2020/12/29 01:24:18;;;;;;;15.20;11.98;;;;;;;3.21;62.82;98034.28;4948512;28;99265;-64
2020/12/29 01:26:45;;;;;;;12.93;11.25;;;;;;;3.20;63.05;98048.09;4966414;28;96742;-63
2020/12/29 01:29:11;;;;;;;14.07;10.23;;;;;;;3.14;63.27;98050.09;4966805;28;99134;-63
2020/12/29 01:31:37;;;;;;;11.85;10.63;;;;;;;3.09;62.98;98067.53;4965769;28;98573;-63
2020/12/29 01:34:04;;;;;;;14.02;11.55;;;;;;;3.15;63.17;98064.59;4966448;28;98540;-63
2020/12/29 01:36:30;;;;;;;14.75;12.25;;;;;;;3.22;63.66;98064.28;4966393;28;97406;-63
2020/12/29 01:38:56;;;;;;;14.15;11.80;;;;;;;2.94;64.19;98077.81;4967298;28;97127;-63
2020/12/29 01:41:23;;;;;;;13.02;11.65;;;;;;;2.91;64.87;98099.38;4965630;28;98575;-63
2020/12/29 01:43:49;;;;;;;16.52;12.45;;;;;;;3.07;64.59;98089.09;4965933;28;98487;-63
2020/12/29 01:46:16;;;;;;;14.38;12.07;;;;;;;3.09;64.50;98119.00;4966424;28;97894;-63
2020/12/29 01:48:42;;;;;;;14.55;12.52;;;;;;;3.23;63.58;98110.53;4967070;28;97042;-63
2020/12/29 01:51:09;;;;;;;13.70;11.68;;;;;;;3.12;63.79;98110.28;4967997;28;98263;-63
2020/12/29 01:53:39;;;;;;;16.67;13.13;;;;;;;3.13;63.73;98094.72;4949108;28;101229;-63
2020/12/29 01:56:09;;;;;;;16.92;12.57;;;;;;;3.22;63.79;98113.19;4967795;28;98041;-64
2020/12/29 01:58:40;;;;;;;;;;;;;;;3.30;63.80;98141.91;4965713;28;99906;-63
2020/12/29 02:01:06;;;;;;;13.30;11.90;;;;;;;3.09;64.05;98142.16;4954082;28;98397;-63
2020/12/29 02:03:33;;;;;;;15.02;12.40;;;;;;;3.14;64.57;98137.63;4967092;28;98570;-63
2020/12/29 02:05:59;;;;;;;14.32;12.30;;;;;;;3.23;64.11;98162.00;4966102;28;99315;-64
2020/12/29 02:08:25;;;;;;;15.45;12.43;;;;;;;3.34;62.96;98153.72;4948619;28;96870;-63
2020/12/29 02:10:53;;;;;;;15.65;13.50;;;;;;;3.04;63.51;98156.19;4938845;28;99078;-63
2020/12/29 02:13:21;;;;;;;15.02;12.40;;;;;;;2.96;64.78;98169.47;4965237;28;98497;-63
2020/12/29 02:15:47;;;;;;;13.65;12.25;;;;;;;3.30;63.90;98178.81;4963575;28;98041;-63
2020/12/29 02:18:13;;;;;;;13.63;11.57;;;;;;;3.38;63.21;98160.38;4965528;28;99752;-63
2020/12/29 02:20:40;;;;;;;13.18;11.68;;;;;;;3.23;64.21;98172.31;4946806;28;98621;-63
2020/12/29 02:23:07;;;;;;;14.40;12.02;;;;;;;3.24;64.00;98153.38;4948471;28;98892;-63
2020/12/29 02:25:33;;;;;;;14.00;11.10;;;;;;;3.14;64.26;98173.66;4964973;28;96547;-63
2020/12/29 02:28:00;;;;;;;14.43;12.40;;;;;;;3.31;63.85;98172.75;4966257;28;99600;-63
2020/12/29 02:30:27;;;;;;;13.25;11.95;;;;;;;3.23;64.80;98168.91;4963572;28;98908;-63
2020/12/29 02:32:53;;;;;;;14.63;13.13;;;;;;;3.18;64.70;98165.75;4948569;28;98554;-63
2020/12/29 02:35:19;;;;;;;15.20;13.23;;;;;;;3.11;64.45;98165.25;4965166;28;97760;-63
2020/12/29 02:37:46;;;;;;;15.30;12.43;;;;;;;3.15;64.47;98159.88;4966952;28;96746;-64
2020/12/29 02:40:12;;;;;;;13.38;12.02;;;;;;;3.01;65.70;98149.44;4965570;28;98457;-63
2020/12/29 02:42:39;;;;;;;13.85;12.20;;;;;;;3.26;64.17;98163.63;4965537;28;98446;-63
2020/12/29 02:45:06;;;;;;;12.07;10.75;;;;;;;3.19;63.77;98180.28;4983031;22;97184;-71
2020/12/29 02:47:33;;;;;;;13.18;11.50;;;;;;;3.21;64.20;98176.72;4984945;28;98533;-70
2020/12/29 02:49:59;;;;;;;12.50;11.18;;;;;;;3.23;63.99;98166.34;4986402;28;98635;-70
2020/12/29 02:52:26;;;;;;;12.95;11.18;;;;;;;3.36;63.54;98198.25;4967221;28;98557;-70
2020/12/29 02:54:52;;;;;;;12.60;11.27;;;;;;;3.33;63.99;98193.25;4986268;28;97309;-71
2020/12/29 02:57:18;;;;;;;13.68;12.27;;;;;;;3.46;63.45;98206.31;4968122;28;97511;-69
2020/12/29 02:59:45;;;;;;;13.57;11.40;;;;;;;3.57;62.87;98206.56;4985152;28;98589;-71
2020/12/29 03:02:11;;;;;;;13.43;11.02;;;;;;;3.62;62.10;98181.38;4985731;28;99108;-70
2020/12/29 03:04:37;;;;;;;11.90;10.55;;;;;;;3.59;62.15;98174.66;4985406;28;97461;-70
2020/12/29 03:07:04;;;;;;;11.88;10.68;;;;;;;3.59;61.48;98190.13;4986301;28;97128;-71
2020/12/29 03:09:30;;;;;;;12.15;10.27;;;;;;;3.73;60.01;98185.94;4986515;28;100719;-71
2020/12/29 03:11:57;;;;;;;12.45;11.15;;;;;;;3.63;59.47;98199.34;4985800;28;98500;-71
2020/12/29 03:14:23;;;;;;;12.75;10.95;;;;;;;3.63;60.31;98212.22;4985544;28;97728;-71
2020/12/29 03:16:49;;;;;;;12.05;10.82;;;;;;;3.63;61.33;98213.97;4986630;28;97542;-71
2020/12/29 03:19:22;;;;;;;13.48;10.32;;;;;;;3.81;61.01;98240.50;4984876;28;98474;-72
2020/12/29 03:21:49;;;;;;;13.73;10.05;;;;;;;3.59;60.89;98248.56;4967344;28;98556;-70
2020/12/29 03:24:15;;;;;;;10.88;9.70;;;;;;;3.71;61.20;98247.06;4986121;28;98109;-71
2020/12/29 03:26:42;;;;;;;15.95;12.20;;;;;;;3.50;61.92;98262.75;4985152;28;96957;-71
2020/12/29 03:29:08;;;;;;;10.98;9.82;;;;;;;3.58;61.75;98265.75;4985105;28;98448;-72
2020/12/29 03:31:36;;;;;;;12.38;11.07;;;;;;;3.57;61.97;98276.97;4985750;28;98612;-70
2020/12/29 03:34:02;;;;;;;11.95;10.13;;;;;;;3.56;62.35;98277.03;4985375;28;100682;-71
2020/12/29 03:36:28;;;;;;;11.32;10.13;;;;;;;3.56;63.07;98280.44;4986298;28;98082;-72
2020/12/29 03:38:55;;;;;;;12.35;10.63;;;;;;;3.80;62.07;98290.38;4985749;28;97638;-71
2020/12/29 03:41:21;;;;;;;15.82;11.38;;;;;;;3.82;61.03;98273.91;4986042;28;98632;-71
2020/12/29 03:43:48;;;;;;;14.27;10.93;;;;;;;3.61;61.67;98296.50;4985681;28;97844;-71
2020/12/29 03:46:14;;;;;;;12.02;10.80;;;;;;;3.68;62.21;98287.53;4984256;28;97838;-71
2020/12/29 03:48:40;;;;;;;12.15;10.48;;;;;;;3.66;62.43;98301.41;4985768;28;97340;-71
2020/12/29 03:51:07;;;;;;;12.07;9.82;;;;;;;3.85;61.21;98288.38;4985604;28;99241;-70
2020/12/29 03:53:33;;;;;;;12.30;10.68;;;;;;;3.71;61.10;98294.25;4968333;28;99065;-70
2020/12/29 03:56:00;;;;;;;13.30;11.20;;;;;;;3.68;62.00;98303.00;4985143;28;97683;-70
2020/12/29 03:58:26;;;;;;;12.65;10.82;;;;;;;3.87;60.95;98302.00;4985454;28;99450;-72
2020/12/29 04:00:52;;;;;;;11.73;10.50;;;;;;;3.97;60.43;98313.50;4985400;28;98495;-71
2020/12/29 04:03:19;;;;;;;12.95;10.60;;;;;;;3.92;60.34;98315.50;4984998;28;96932;-71
2020/12/29 04:05:45;;;;;;;11.10;9.63;;;;;;;3.73;61.22;98310.50;4985169;28;97341;-71
2020/12/29 04:08:11;;;;;;;11.35;10.18;;;;;;;3.86;61.25;98302.94;4985060;28;99661;-72
2020/12/29 04:10:38;;;;;;;11.90;10.38;;;;;;;3.77;61.60;98293.09;4985067;28;97608;-72
2020/12/29 04:13:05;;;;;;;13.50;10.50;;;;;;;3.70;61.72;98264.25;4984217;28;96773;-72
2020/12/29 04:15:31;;;;;;;11.65;10.43;;;;;;;3.81;61.33;98271.41;4983818;28;100317;-72
2020/12/29 04:17:57;;;;;;;12.88;10.98;;;;;;;3.58;61.89;98252.88;4984416;28;97554;-71
2020/12/29 04:20:24;;;;;;;12.15;10.65;;;;;;;3.59;62.54;98262.25;4984401;28;98763;-72
2020/12/29 04:22:50;;;;;;;11.88;10.23;;;;;;;3.83;62.12;98278.13;4984586;28;96603;-71
2020/12/29 04:25:16;;;;;;;12.95;10.70;;;;;;;3.72;62.42;98272.72;4967121;28;97619;-71
2020/12/29 04:27:43;;;;;;;12.98;10.98;;;;;;;3.71;62.66;98265.09;4984569;28;98628;-71
2020/12/29 04:30:09;;;;;;;14.45;11.65;;;;;;;3.59;62.73;98262.25;4984893;28;98662;-70
2020/12/29 04:32:37;;;;;;;11.13;9.98;;;;;;;3.65;62.01;98261.94;4984403;28;97141;-70
2020/12/29 04:35:04;;;;;;;12.43;11.13;;;;;;;3.43;63.99;98294.88;4967211;28;100552;-71
2020/12/29 04:37:31;;;;;;;11.35;9.93;;;;;;;3.42;64.02;98298.38;4983514;28;97701;-71
2020/12/29 04:39:57;;;;;;;12.75;11.05;;;;;;;3.46;64.00;98301.63;4985273;28;99963;-71
2020/12/29 04:42:27;;;;;;;12.43;10.23;;;;;;;3.38;64.79;98299.44;4986805;28;99491;-73
2020/12/29 04:44:54;;;;;;;18.20;12.45;;;;;;;3.73;63.38;98309.63;4986715;28;97173;-73
2020/12/29 04:47:21;;;;;;;12.80;11.38;;;;;;;3.40;63.77;98329.34;4989992;28;98490;-74
2020/12/29 04:49:47;;;;;;;12.98;10.13;;;;;;;3.60;63.73;98330.91;4956156;28;98413;-74
2020/12/29 04:52:14;;;;;;;12.77;11.40;;;;;;;3.60;63.75;98346.38;4956717;28;96558;-74
2020/12/29 04:54:41;;;;;;;12.88;11.43;;;;;;;3.70;63.64;98344.16;4990507;28;96627;-73
2020/12/29 04:57:09;;;;;;;13.73;12.15;;;;;;;3.77;63.65;98344.66;4990470;28;98619;-73
2020/12/29 04:59:35;;;;;;;13.88;11.10;;;;;;;3.77;63.17;98353.22;4985773;28;98528;-73
2020/12/29 05:02:02;;;;;;;12.35;11.07;;;;;;;3.67;63.59;98347.72;4989762;28;96484;-73
2020/12/29 05:04:29;;;;;;;12.10;10.90;;;;;;;3.71;63.36;98352.72;4990446;28;96942;-73
2020/12/29 05:06:55;;;;;;;12.35;10.93;;;;;;;3.93;62.02;98369.53;4989753;28;98519;-73
2020/12/29 05:09:26;;;;;;;12.95;10.73;;;;;;;3.56;64.09;98365.47;4990252;28;98753;-73
2020/12/29 05:11:52;;;;;;;16.17;12.13;;;;;;;3.67;63.84;98365.75;4990237;28;96601;-73
2020/12/29 05:14:24;;;;;;;12.18;10.82;;;;;;;3.55;64.60;98344.94;4990815;28;96627;-73
2020/12/29 05:16:50;;;;;;;12.63;10.38;;;;;;;3.72;63.28;98356.94;4992973;28;97313;-73
2020/12/29 05:19:18;;;;;;;15.57;12.32;;;;;;;3.78;63.61;98354.03;4994328;28;98433;-74
2020/12/29 05:21:45;;;;;;;13.77;10.85;;;;;;;3.72;63.99;98350.03;4972548;28;96809;-73
2020/12/29 05:24:16;;;;;;;12.05;10.65;;;;;;;3.67;64.20;98352.03;4993545;28;96639;-74
2020/12/29 05:26:44;;;;;;;11.38;9.85;;;;;;;3.61;64.30;98347.19;4992349;28;98499;-74
2020/12/29 05:29:13;;;;;;;13.77;12.35;;;;;;;3.65;63.63;98354.69;4993877;28;98363;-74
2020/12/29 05:31:44;;;;;;;11.50;10.00;;;;;;;3.41;63.93;98340.50;4987329;28;96640;-71
2020/12/29 05:34:24;;;;;;;12.45;10.70;;;;;;;3.31;64.37;98353.03;4986463;28;96762;-73
2020/12/29 05:36:51;;;;;;;14.23;11.18;;;;;;;3.19;65.08;98347.63;4985843;28;98503;-74
2020/12/29 05:39:22;;;;;;;12.52;11.23;;;;;;;3.23;65.31;98337.09;4985775;28;97965;-73
2020/12/29 05:41:52;;;;;;;12.70;10.85;;;;;;;3.45;65.14;98349.72;4985385;28;99641;-73
2020/12/29 05:44:30;;;;;;;13.10;11.80;;;;;;;3.51;65.07;98366.59;4986340;28;97142;-72
2020/12/29 05:47:05;;;;;;;15.95;11.90;;;;;;;3.72;64.46;98356.94;4985206;28;99233;-71
2020/12/29 05:49:32;;;;;;;13.35;11.00;;;;;;;3.83;64.07;98365.78;4986010;28;98564;-70
2020/12/29 05:51:58;;;;;;;15.05;12.30;;;;;;;3.71;65.15;98373.31;4985993;28;96683;-71
2020/12/29 05:54:25;;;;;;;12.20;10.95;;;;;;;3.78;63.95;98362.63;4987157;28;98748;-71
2020/12/29 05:56:54;;;;;;;13.40;10.20;;;;;;;3.50;65.74;98364.94;4989772;28;97586;-70
2020/12/29 05:59:21;;;;;;;11.13;10.02;;;;;;;3.78;64.87;98374.66;4986007;28;98647;-72
2020/12/29 06:01:48;;;;;;;12.27;10.15;;;;;;;3.77;65.25;98373.00;4991325;28;96907;-73
2020/12/29 06:04:15;;;;;;;11.98;9.77;;;;;;;3.98;64.74;98387.34;4987444;28;97012;-70
2020/12/29 06:06:43;;;;;;;10.82;9.38;;;;;;;4.00;65.34;98395.84;4991552;28;98623;-70
2020/12/29 06:09:11;;;;;;;13.57;10.70;;;;;;;4.06;65.78;98399.84;4991899;28;98427;-70
2020/12/29 06:11:46;;;;;;;12.10;10.93;;;;;;;4.09;65.61;98394.50;4991656;28;96512;-70
2020/12/29 06:14:26;;;;;;;11.02;8.75;;;;;;;4.11;65.77;98409.00;4991700;28;96624;-70
2020/12/29 06:16:53;;;;;;;10.60;9.50;;;;;;;4.23;65.71;98388.63;4973737;28;98480;-70
2020/12/29 06:19:20;;;;;;;10.35;8.77;;;;;;;4.28;65.52;98386.63;4991815;28;98860;-70
2020/12/29 06:22:12;;;;;;;10.93;9.73;;;;;;;4.22;65.72;98398.13;4991394;28;96995;-70
2020/12/29 06:24:39;;;;;;;12.13;10.50;;;;;;;4.31;64.65;98425.97;4962494;28;97101;-69
2020/12/29 06:27:08;;;;;;;13.38;10.52;;;;;;;4.25;64.14;98446.09;4991069;28;98655;-69
2020/12/29 06:29:37;;;;;;;11.90;10.32;;;;;;;4.04;64.16;98464.34;4991623;28;98734;-70
2020/12/29 06:32:05;;;;;;;11.27;9.90;;;;;;;4.12;64.34;98459.66;4973996;28;96529;-70
2020/12/29 06:34:32;;;;;;;15.13;12.10;;;;;;;4.14;64.16;98469.88;4991144;28;97068;-70
2020/12/29 06:37:22;;;;;;;12.00;10.15;;;;;;;3.86;65.01;98468.72;4987629;28;97565;-70
2020/12/29 06:39:51;;;;;;;12.48;10.90;;;;;;;3.88;64.88;98469.47;4973666;28;98178;-70
2020/12/29 06:42:18;;;;;;;12.98;11.30;;;;;;;3.59;66.18;98467.53;4990450;28;96552;-70
2020/12/29 06:44:44;;;;;;;13.30;11.68;;;;;;;3.76;65.22;98464.13;4991111;28;96520;-71
2020/12/29 06:47:11;;;;;;;16.50;11.50;;;;;;;3.73;65.12;98472.00;4987032;28;98402;-71
2020/12/29 06:49:43;;;;;;;15.00;12.50;;;;;;;3.72;65.64;98452.28;4951864;28;98572;-62
2020/12/29 06:52:28;;;;;;;16.38;12.73;;;;;;;3.91;65.21;98465.91;4987885;28;97065;-64
2020/12/29 06:54:54;;;;;;;13.33;11.30;;;;;;;3.77;65.73;98476.09;4991131;28;97105;-65
2020/12/29 06:57:35;;;;;;;13.63;12.25;;;;;;;3.89;65.20;98462.59;4991428;28;98455;-66
2020/12/29 07:00:10;;;;;;;18.42;12.55;;;;;;;3.82;65.09;98469.78;4986471;28;98872;-67
2020/12/29 07:02:38;;;;;;;14.43;12.55;;;;;;;3.87;65.02;98485.03;4991849;28;96534;-66
2020/12/29 07:05:15;;;;;;;15.73;13.77;;;;;;;3.91;65.27;98478.81;4990941;28;96657;-65
2020/12/29 07:08:01;;;;;;;14.98;12.63;;;;;;;4.01;65.18;98449.06;4989501;28;98639;-68
2020/12/29 07:10:37;;;;;;;16.63;12.82;;;;;;;3.99;64.62;98462.94;4990999;28;98602;-66
2020/12/29 07:13:04;;;;;;;12.90;11.10;;;;;;;3.93;64.81;98440.88;4989316;28;96923;-67
2020/12/29 07:15:31;;;;;;;13.95;12.27;;;;;;;3.77;64.84;98424.53;4990817;28;96717;-68
2020/12/29 07:18:01;;;;;;;11.10;10.00;;;;;;;3.74;64.69;98445.34;4986705;28;99179;-69
2020/12/29 07:20:31;;;;;;;13.02;11.70;;;;;;;3.84;65.06;98449.13;4991146;28;98533;-68
2020/12/29 07:23:07;;;;;;;14.48;11.90;;;;;;;3.81;65.01;98465.56;4990677;28;97033;-68
2020/12/29 07:25:36;;;;;;;13.98;12.18;;;;;;;3.95;65.08;98467.44;4992432;28;96519;-68
2020/12/29 07:28:06;;;;;;;14.93;13.27;;;;;;;4.08;64.78;98465.88;4990490;28;98370;-70
2020/12/29 07:30:35;;;;;;;15.75;12.25;;;;;;;4.03;65.28;98473.00;4991056;28;98437;-72
2020/12/29 07:33:03;;;;;;;13.93;11.93;;;;;;;4.04;65.57;98463.53;4990281;28;96461;-73
2020/12/29 07:35:31;;;;;;;14.02;11.85;;;;;;;3.88;66.27;98482.34;4991331;28;96912;-72
2020/12/29 07:37:58;;;;;;;15.82;11.98;;;;;;;3.86;65.88;98491.94;4989623;28;98467;-72
2020/12/29 07:40:25;;;;;;;14.73;13.23;;;;;;;3.92;65.64;98494.19;4991154;28;98591;-72
2020/12/29 07:42:52;;;;;;;13.98;12.57;;;;;;;4.05;66.40;98501.28;4990693;28;98254;-73
2020/12/29 07:45:18;;;;;;;16.30;12.70;;;;;;;3.98;65.93;98497.38;4989679;28;99421;-71
2020/12/29 07:47:44;;;;;;;15.40;13.80;;;;;;;4.15;65.49;98500.75;4990551;28;98645;-73
2020/12/29 07:50:11;;;;;;;14.85;12.38;;;;;;;3.92;65.85;98527.69;4991120;28;98747;-70
2020/12/29 07:52:37;;;;;;;13.95;12.45;;;;;;;3.75;66.51;98534.63;4990658;28;96671;-70
2020/12/29 07:55:13;;;;;;;15.07;13.50;;;;;;;4.02;65.39;98532.41;4989804;28;96685;-69
2020/12/29 07:57:40;;;;;;;16.15;12.35;;;;;;;4.02;64.90;98507.44;4987892;28;97622;-70
2020/12/29 08:00:10;;;;;;;14.38;11.55;;;;;;;4.00;66.28;98511.03;4989246;28;98465;-71
2020/12/29 08:02:40;;;;;;;13.50;11.10;;;;;;;3.89;67.10;98527.88;4983150;28;96645;-73
2020/12/29 08:05:06;;;;;;;13.98;12.48;;;;;;;3.85;66.63;98521.19;4989816;28;97338;-71
2020/12/29 08:07:33;;;;;;;14.07;12.52;;;;;;;3.87;66.62;98500.50;4990043;28;98628;-71
2020/12/29 08:10:07;;;;;;;19.57;13.07;;;;;;;3.85;66.36;98504.91;4990359;28;98684;-69
2020/12/29 08:12:33;;;;;;;15.38;11.82;;;;;;;4.26;65.71;98507.09;4991090;28;96587;-70
2020/12/29 08:14:59;;;;;;;14.00;12.02;;;;;;;4.25;65.83;98515.75;4955351;28;96727;-69
2020/12/29 08:17:26;;;;;;;17.75;12.70;;;;;;;4.40;64.95;98545.91;4940227;28;98620;-70
2020/12/29 08:19:59;;;;;;;14.52;12.90;;;;;;;4.80;64.08;98523.19;4985864;28;98428;-70
2020/12/29 08:22:27;;;;;;;14.35;12.85;;;;;;;5.24;63.18;98518.16;4988097;28;97133;-69
2020/12/29 08:24:54;;;;;;;15.10;13.20;;;;;;;5.19;62.71;98539.06;4989000;28;96658;-67
2020/12/29 08:27:22;;;;;;;15.80;12.43;;;;;;;5.22;61.82;98548.41;4987310;28;98614;-69
2020/12/29 08:29:49;;;;;;;15.77;14.15;;;;;;;5.13;62.13;98554.91;4988302;28;98704;-68
2020/12/29 08:32:16;;;;;;;15.82;14.00;;;;;;;4.78;62.60;98572.28;4983452;28;96700;-68
2020/12/29 08:34:46;;;;;;;17.23;12.63;;;;;;;4.43;63.21;98584.47;4988771;28;96636;-68
2020/12/29 08:37:13;;;;;;;16.63;13.88;;;;;;;4.17;63.45;98567.72;4985838;28;97974;-66
2020/12/29 08:40:11;;;;;;;15.30;13.13;;;;;;;4.56;63.33;98569.16;4989136;28;98520;-68
2020/12/29 08:42:50;;;;;;;12.70;11.07;;;;;;;4.77;62.30;98575.78;4984121;28;96745;-68
2020/12/29 08:45:16;;;;;;;16.00;13.77;;;;;;;4.71;62.72;98589.84;4988263;28;97067;-68
2020/12/29 08:47:43;;;;;;;15.40;13.77;;;;;;;4.53;63.64;98575.34;4957272;28;98433;-68
2020/12/29 08:50:22;;;;;;;15.20;13.55;;;;;;;4.78;62.46;98571.44;4943964;28;98607;-69
2020/12/29 08:52:52;;;;;;;15.10;13.35;;;;;;;4.70;63.26;98588.19;4992935;28;96939;-68
2020/12/29 08:55:29;;;;;;;18.08;14.40;;;;;;;4.69;63.49;98601.19;4992926;28;96756;-68
2020/12/29 08:57:56;;;;;;;18.35;15.52;;;;;;;4.67;63.58;98590.91;4992650;28;98489;-68
2020/12/29 09:00:27;;;;;;;21.17;16.02;;;;;;;4.64;63.85;98593.69;4991247;28;98535;-74
2020/12/29 09:02:53;;;;;;;21.08;15.73;;;;;;;4.67;63.83;98590.09;4989169;28;96840;-72
2020/12/29 09:05:29;;;;;;;15.68;13.35;;;;;;;4.46;64.24;98576.56;4992519;28;96718;-68
2020/12/29 09:07:55;;;;;;;17.98;14.85;;;;;;;4.51;64.27;98600.38;4986602;28;98551;-70
2020/12/29 09:10:22;;;;;;;17.92;15.48;;;;;;;4.42;65.36;98630.06;4992283;28;98720;-73
2020/12/29 09:12:48;;;;;;;18.17;15.07;;;;;;;4.69;63.54;98634.75;4992553;28;96568;-71
2020/12/29 09:15:25;;;;;;;16.27;14.35;;;;;;;4.55;63.67;98635.44;4974269;28;97685;-70
2020/12/29 09:17:58;;;;;;;19.50;14.10;;;;;;;4.72;64.07;98642.31;4992318;28;98524;-74
2020/12/29 09:20:29;;;;;;;17.67;15.25;;;;;;;4.48;64.39;98649.56;4993086;28;98760;-74
2020/12/29 09:22:55;;;;;;;19.30;15.98;;;;;;;4.57;63.95;98648.25;4991492;28;96773;-64
2020/12/29 09:25:23;;;;;;;18.15;16.05;;;;;;;4.63;64.22;98640.19;4993525;28;96636;-66
2020/12/29 09:27:50;;;;;;;16.80;15.02;;;;;;;4.67;64.00;98632.22;4992146;28;98582;-70
2020/12/29 09:30:16;;;;;;;19.75;15.57;;;;;;;4.90;63.44;98641.38;4975414;28;98443;-70
2020/12/29 09:32:43;;;;;;;17.10;14.52;;;;;;;4.74;64.08;98640.50;4992270;28;96840;-71
2020/12/29 09:35:25;;;;;;;16.88;14.38;;;;;;;4.84;63.70;98646.81;4975064;28;97078;-70
2020/12/29 09:37:55;;;;;;;18.77;16.75;;;;;;;4.72;63.97;98637.97;4991231;28;98993;-70
2020/12/29 09:40:22;;;;;;;17.52;15.00;;;;;;;4.81;63.88;98638.44;4992444;28;98504;-71
2020/12/29 09:42:48;;;;;;;20.60;17.27;;;;;;;4.81;64.30;98631.50;4992066;28;96779;-69
2020/12/29 09:45:18;;;;;;;18.38;15.98;;;;;;;4.81;63.69;98646.16;4991519;28;97946;-70
2020/12/29 09:47:44;;;;;;;17.38;14.75;;;;;;;4.81;63.91;98647.00;4991570;28;98531;-73
2020/12/29 09:50:11;;;;;;;18.92;16.58;;;;;;;4.81;63.88;98636.69;4990760;28;97470;-71
2020/12/29 09:52:37;;;;;;;18.98;15.95;;;;;;;4.76;65.23;98627.50;4991239;28;97017;-71
2020/12/29 09:55:04;;;;;;;19.10;16.35;;;;;;;4.89;64.66;98637.09;4992173;28;96704;-74
2020/12/29 09:57:31;;;;;;;19.05;17.05;;;;;;;4.87;64.53;98651.00;4991886;28;98715;-74
2020/12/29 09:59:57;;;;;;;21.17;17.92;;;;;;;5.03;63.54;98641.53;4990916;28;98611;-74
2020/12/29 10:02:24;;;;;;;20.20;16.30;;;;;;;4.88;64.28;98657.84;4991594;28;96653;-75
2020/12/29 10:04:50;;;;;;;19.33;16.63;;;;;;;4.94;64.22;98668.69;4991892;28;96726;-74
2020/12/29 10:07:17;;;;;;;22.83;18.25;;;;;;;4.89;64.78;98662.09;4991748;28;98535;-74
2020/12/29 10:09:43;;;;;;;22.35;18.08;;;;;;;4.97;64.54;98658.19;4988987;28;98510;-72
2020/12/29 10:12:10;;;;;;;19.70;17.60;;;;;;;5.08;63.78;98643.88;4991428;28;96743;-70
2020/12/29 10:14:36;;;;;;;19.52;17.40;;;;;;;4.88;65.17;98634.59;4991427;28;98090;-71
2020/12/29 10:17:02;;;;;;;19.98;17.88;;;;;;;5.17;64.25;98648.56;4988428;28;98415;-71
2020/12/29 10:19:29;;;;;;;22.98;19.85;;;;;;;4.89;65.12;98650.00;4991297;28;98678;-72
2020/12/29 10:21:56;;;;;;;23.15;19.67;;;;;;;4.96;65.40;98651.38;4990989;28;96597;-72
2020/12/29 10:24:22;;;;;;;27.08;24.10;;;;;;;5.00;65.47;98645.09;4991944;28;96569;-72
2020/12/29 10:26:50;;;;;;;25.65;22.00;;;;;;;5.11;65.32;98654.88;4991141;28;98641;-72
2020/12/29 10:29:17;;;;;;;22.75;18.30;;;;;;;5.17;65.28;98664.06;4991103;28;98613;-72
2020/12/29 10:31:43;;;;;;;21.13;18.75;;;;;;;5.25;65.23;98680.81;4988574;28;96760;-69
2020/12/29 10:34:11;;;;;;;24.35;19.85;;;;;;;5.12;65.47;98684.97;4990623;28;96825;-65
2020/12/29 10:36:37;;;;;;;27.98;23.02;;;;;;;5.14;65.85;98670.22;4983324;28;98729;-62
2020/12/29 10:39:04;;;;;;;25.25;21.13;;;;;;;5.22;66.33;98682.75;4985725;28;98601;-68
2020/12/29 10:41:31;;;;;;;22.58;20.08;;;;;;;5.26;66.15;98685.06;4989602;28;96995;-69
2020/12/29 10:43:57;;;;;;;23.92;18.75;;;;;;;5.34;65.57;98701.94;4989275;28;97250;-70
2020/12/29 10:46:24;;;;;;;20.88;18.70;;;;;;;5.26;65.86;98705.72;4988557;28;98647;-69
2020/12/29 10:48:50;;;;;;;26.23;21.48;;;;;;;5.18;66.26;98687.22;4988863;28;98468;-69
2020/12/29 10:51:20;;;;;;;23.15;19.83;;;;;;;5.16;66.47;98683.03;4988528;28;96829;-69
2020/12/29 10:53:47;;;;;;;26.52;21.15;;;;;;;5.12;66.64;98672.06;4988895;28;96609;-69
2020/12/29 10:56:13;;;;;;;24.05;20.80;;;;;;;5.19;66.65;98670.81;4988544;28;98604;-69
2020/12/29 10:58:42;;;;;;;24.67;20.17;;;;;;;5.28;66.18;98681.59;4989992;28;99107;-68
2020/12/29 11:01:08;;;;;;;24.83;21.65;;;;;;;5.40;65.17;98696.44;4985844;28;97366;-66
2020/12/29 11:03:35;;;;;;;24.75;21.90;;;;;;;5.29;65.51;98685.84;4991030;28;98131;-69
2020/12/29 11:06:01;;;;;;;23.00;20.30;;;;;;;5.21;65.54;98675.88;4989733;28;98635;-69
2020/12/29 11:08:28;;;;;;;25.13;21.38;;;;;;;5.42;65.07;98673.91;4991124;28;98516;-69
2020/12/29 11:10:55;;;;;;;21.65;19.17;;;;;;;5.16;65.76;98681.28;4973515;28;96870;-70
2020/12/29 11:13:21;;;;;;;23.83;20.85;;;;;;;5.16;64.99;98670.97;4990562;28;96829;-68
2020/12/29 11:15:53;;;;;;;28.25;21.77;;;;;;;5.22;65.08;98680.16;4972644;28;98585;-69
2020/12/29 11:18:20;;;;;;;23.88;20.58;;;;;;;5.39;64.79;98672.34;4989548;28;98461;-69
2020/12/29 11:20:49;;;;;;;23.08;19.80;;;;;;;5.42;64.56;98679.06;4990363;28;96655;-68
2020/12/29 11:23:16;;;;;;;27.65;24.00;;;;;;;5.18;65.20;98669.16;4989779;28;96988;-69
2020/12/29 11:25:42;;;;;;;26.25;21.50;;;;;;;5.00;66.32;98668.34;4987757;28;98398;-69
2020/12/29 11:28:08;;;;;;;26.73;23.83;;;;;;;4.99;66.55;98676.19;4989900;28;98583;-69
2020/12/29 11:30:35;;;;;;;24.85;20.75;;;;;;;5.24;66.16;98668.81;4990225;28;96710;-69
2020/12/29 11:33:01;;;;;;;23.08;20.15;;;;;;;5.25;65.48;98659.31;4990010;28;96676;-69